Aeroporto :
LOGIN :

Iscrizione | Disclaimer

   EN    FR    IT 

 










Sommario :    VFR   VFR Marginale   IFR   IFR Intensivo   IFR Molto Intensivo
Visibilità : 
Base nubi : 
>= 8 km
>= 3000ft
5 / 8 km
1000 / 3000 ft
1500m / 5 km
500 / 1000 ft
800 / 1500m
200 / 500 ft
< 800m
< 200 ft
Simboli :   Temporali  Nebbia  Neve Forte  Precipitazioni Forti  Vento > 20 kt
SIGMETs :   Varie  Temporali  Ghiacco  Turbolenza  Onda orograficha  Ceneri Vulcaniche






- Altitudine del aeroporto : 190 ft
- Codice IATA : CAX


EGNC - Carlisle

ULTIMO METAR :
  • 140820Z 36004KT 330V030 9999 FEW018 01/00 Q1004

METARs OBSOLETI :
  • 140750Z 02004KT 330V060 9999 FEW018 02/00 Q1003
  • 140720Z 01008KT 340V070 9999 SCT020 02/00 Q1002
  • 140650Z 03004KT 320V100 9999 SCT020 01/00 Q1002
  • 140620Z 03004KT 340V060 9999 SCT020 01/00 Q1002

TAF TAF EGNC
Valido dal 14 a 09 ore il 14 a 18 ore UTC


140812Z 1409/1418 02008KT 9999 SCT025
PROB30
TEMPO 1409/1418 8000 -SHRA BKN014
ATIS : +44 1228 574 123



MetMap, La meteo Aeronautica in un colpo d'occhio ! - Copyright ORBIFLY Dicembre 2007 - Disclaimer

ORBIFLY MET'MAP TEAM :

Programmazione e sviluppo : Alexandra Zaïnal
Concezione e sviluppo : Baudouin d'Aumeries
Co-Programmazione e sviluppo : Marc-Olivier Méhu
Supporto tecnico e logistico : Manuel Goepfert
Aiuto per la traduzione : Arnaldo La Scala

Contatto : metmap@orbifly.com




FONTI E CREDITI :

   NOAA